PWSweather.com
Personal Weather Stations
Station Observations
KAZPHOEN90
RayThunderhill, Phoenix, AZ

RayThunderhillPhoenix, AZ

Lat: 33.312, Lon: -112.029

Elevation: 1260

Station Type: Davis Vantage VUE

High Low Average
Temperature 96.4°F35.8°F 70.2°F21.2°F 82.3°F27.9°F
Dew Point 60.2°F15.7°F 51.8°F11.0°F 56.9°F13.8°F
Winds 4.3 mph ESE6.9 mph ESE Calm Calm 0.8 mph 1.3 mph
Wind Gusts 8.0 mph12.9 mph -- 1.9 mph3.1 mph
Humidity 63% 27% 43%
Pressure 29.89 in1012.20 in 29.79 in1008.80 in -
Precipitation 0.00 in0.00 in - -
Hour Temp Dew Point Humidity Winds Wind Gusts Pressure Precip Precip Rate Daily Precip Total
12:00 AM 73.7°F23.2°C 52.2°F11.2°C 47% Calm Calm -- 29.81 in1009.5 mb - 0.00 in0.0 mm 0.00 in0.0 mm
12:15 AM 72.7°F22.6°C 51.9°F11.1°C 48% Calm Calm -- 29.81 in1009.5 mb - 0.00 in0.0 mm 0.00 in0.0 mm
12:30 AM 72.2°F22.3°C 52.0°F11.1°C 49% Calm Calm -- 29.81 in1009.5 mb - 0.00 in0.0 mm 0.00 in0.0 mm
12:45 AM 72.1°F22.3°C 51.9°F11.1°C 49% Calm Calm -- 29.81 in1009.5 mb - 0.00 in0.0 mm 0.00 in0.0 mm
01:00 AM 71.4°F21.9°C 51.8°F11.0°C 50% Calm Calm -- 29.81 in1009.5 mb - 0.00 in0.0 mm 0.00 in0.0 mm
01:15 AM 71.5°F21.9°C 51.9°F11.1°C 50% Calm Calm -- 29.81 in1009.5 mb - 0.00 in0.0 mm 0.00 in0.0 mm
01:30 AM 71.1°F21.7°C 52.6°F11.4°C 52% 0.2 mph SE0.3 kmh SE 1.0 mph1.6 kmh 29.82 in1009.8 mb - 0.00 in0.0 mm 0.00 in0.0 mm
01:45 AM 70.9°F21.6°C 52.4°F11.3°C 52% Calm Calm -- 29.81 in1009.5 mb - 0.00 in0.0 mm 0.00 in0.0 mm
02:00 AM 70.3°F21.3°C 52.4°F11.3°C 53% Calm Calm -- 29.81 in1009.5 mb - 0.00 in0.0 mm 0.00 in0.0 mm
02:15 AM 70.2°F21.2°C 52.3°F11.3°C 53% Calm Calm -- 29.81 in1009.5 mb - 0.00 in0.0 mm 0.00 in0.0 mm
02:30 AM 70.5°F21.4°C 53.1°F11.7°C 54% Calm Calm -- 29.81 in1009.5 mb - 0.00 in0.0 mm 0.00 in0.0 mm
02:45 AM 70.4°F21.3°C 53.0°F11.7°C 54% Calm Calm -- 29.81 in1009.5 mb - 0.00 in0.0 mm 0.00 in0.0 mm
03:00 AM 70.6°F21.4°C 53.1°F11.7°C 54% Calm Calm -- 29.82 in1009.8 mb - 0.00 in0.0 mm 0.00 in0.0 mm
03:15 AM 70.7°F21.5°C 53.2°F11.8°C 54% Calm Calm -- 29.83 in1010.2 mb - 0.00 in0.0 mm 0.00 in0.0 mm
03:30 AM 71.1°F21.7°C 54.1°F12.3°C 55% Calm Calm -- 29.83 in1010.2 mb - 0.00 in0.0 mm 0.00 in0.0 mm
03:45 AM 70.6°F21.4°C 54.1°F12.3°C 56% Calm Calm -- 29.83 in1010.2 mb - 0.00 in0.0 mm 0.00 in0.0 mm
04:00 AM 70.9°F21.6°C 53.9°F12.2°C 55% Calm Calm -- 29.82 in1009.8 mb - 0.00 in0.0 mm 0.00 in0.0 mm
04:15 AM 73.8°F23.2°C 54.0°F12.2°C 50% 0.3 mph NW0.5 kmh NW 2.0 mph3.2 kmh 29.82 in1009.8 mb - 0.00 in0.0 mm 0.00 in0.0 mm
04:30 AM 74.6°F23.7°C 54.7°F12.6°C 50% 0.9 mph NE1.4 kmh NE 6.0 mph9.7 kmh 29.82 in1009.8 mb - 0.00 in0.0 mm 0.00 in0.0 mm
04:45 AM 74.3°F23.5°C 55.0°F12.8°C 51% 1.0 mph N1.6 kmh N 4.0 mph6.4 kmh 29.82 in1009.8 mb - 0.00 in0.0 mm 0.00 in0.0 mm
05:00 AM 73.9°F23.3°C 55.7°F13.2°C 53% 0.5 mph ENE0.8 kmh ENE 3.0 mph4.8 kmh 29.83 in1010.2 mb - 0.00 in0.0 mm 0.00 in0.0 mm
05:15 AM 73.6°F23.1°C 55.9°F13.3°C 54% 0.1 mph NE0.2 kmh NE -- 29.83 in1010.2 mb - 0.00 in0.0 mm 0.00 in0.0 mm
05:30 AM 73.4°F23.0°C 56.3°F13.5°C 55% 0.6 mph NW1.0 kmh NW 3.0 mph4.8 kmh 29.84 in1010.5 mb - 0.00 in0.0 mm 0.00 in0.0 mm
05:45 AM 72.9°F22.7°C 56.8°F13.8°C 57% 0.4 mph N0.6 kmh N 1.0 mph1.6 kmh 29.84 in1010.5 mb - 0.00 in0.0 mm 0.00 in0.0 mm
06:00 AM 72.4°F22.4°C 56.8°F13.8°C 58% Calm Calm -- 29.84 in1010.5 mb - 0.00 in0.0 mm 0.00 in0.0 mm
06:15 AM 72.1°F22.3°C 57.0°F13.9°C 59% Calm Calm -- 29.85 in1010.8 mb - 0.00 in0.0 mm 0.00 in0.0 mm
06:30 AM 71.9°F22.2°C 57.3°F14.1°C 60% Calm Calm -- 29.85 in1010.8 mb - 0.00 in0.0 mm 0.00 in0.0 mm
06:45 AM 71.9°F22.2°C 57.7°F14.3°C 61% Calm Calm -- 29.85 in1010.8 mb - 0.00 in0.0 mm 0.00 in0.0 mm
07:00 AM 71.4°F21.9°C 57.7°F14.3°C 62% Calm Calm -- 29.86 in1011.2 mb - 0.00 in0.0 mm 0.00 in0.0 mm
07:15 AM 71.3°F21.8°C 58.1°F14.5°C 63% Calm Calm -- 29.86 in1011.2 mb - 0.00 in0.0 mm 0.00 in0.0 mm
07:30 AM 71.8°F22.1°C 58.5°F14.7°C 63% Calm Calm -- 29.86 in1011.2 mb - 0.00 in0.0 mm 0.00 in0.0 mm
07:45 AM 72.9°F22.7°C 58.7°F14.8°C 61% Calm Calm -- 29.87 in1011.5 mb - 0.00 in0.0 mm 0.00 in0.0 mm
08:00 AM 75.1°F23.9°C 59.3°F15.2°C 58% 0.1 mph E0.2 kmh E 1.0 mph1.6 kmh 29.87 in1011.5 mb - 0.00 in0.0 mm 0.00 in0.0 mm
08:15 AM 77.9°F25.5°C 59.4°F15.2°C 53% Calm Calm 1.0 mph1.6 kmh 29.87 in1011.5 mb - 0.00 in0.0 mm 0.00 in0.0 mm
08:30 AM 79.9°F26.6°C 59.0°F15.0°C 49% 0.1 mph E0.2 kmh E 1.0 mph1.6 kmh 29.88 in1011.9 mb - 0.00 in0.0 mm 0.00 in0.0 mm
08:45 AM 79.5°F26.4°C 58.7°F14.8°C 49% Calm Calm 1.0 mph1.6 kmh 29.88 in1011.9 mb - 0.00 in0.0 mm 0.00 in0.0 mm
09:00 AM 81.3°F27.4°C 59.1°F15.1°C 47% 0.5 mph N0.8 kmh N 1.0 mph1.6 kmh 29.89 in1012.2 mb - 0.00 in0.0 mm 0.00 in0.0 mm
09:15 AM 82.9°F28.3°C 58.1°F14.5°C 43% 0.6 mph ENE1.0 kmh ENE 2.0 mph3.2 kmh 29.88 in1011.9 mb - 0.00 in0.0 mm 0.00 in0.0 mm
09:30 AM 83.6°F28.7°C 58.1°F14.5°C 42% 0.2 mph SE0.3 kmh SE -- 29.88 in1011.9 mb - 0.00 in0.0 mm 0.00 in0.0 mm
09:45 AM 83.2°F28.4°C 58.4°F14.7°C 43% 2.0 mph NW3.2 kmh NW 5.0 mph8.0 kmh 29.88 in1011.9 mb - 0.00 in0.0 mm 0.00 in0.0 mm
10:00 AM 83.6°F28.7°C 58.7°F14.8°C 43% 0.3 mph E0.5 kmh E 3.0 mph4.8 kmh 29.88 in1011.9 mb - 0.00 in0.0 mm 0.00 in0.0 mm
10:15 AM 84.4°F29.1°C 58.8°F14.9°C 42% Calm Calm 1.0 mph1.6 kmh 29.88 in1011.9 mb - 0.00 in0.0 mm 0.00 in0.0 mm
10:30 AM 86.3°F30.2°C 58.4°F14.7°C 39% 1.2 mph S1.9 kmh S 4.0 mph6.4 kmh 29.88 in1011.9 mb - 0.00 in0.0 mm 0.00 in0.0 mm
10:45 AM 86.1°F30.1°C 58.2°F14.6°C 39% 1.5 mph SE2.4 kmh SE 4.0 mph6.4 kmh 29.87 in1011.5 mb - 0.00 in0.0 mm 0.00 in0.0 mm
11:00 AM 86.6°F30.3°C 58.7°F14.8°C 39% Calm Calm 2.0 mph3.2 kmh 29.87 in1011.5 mb - 0.00 in0.0 mm 0.00 in0.0 mm
11:15 AM 88.6°F31.4°C 59.0°F15.0°C 37% 1.0 mph SE1.6 kmh SE 1.0 mph1.6 kmh 29.86 in1011.2 mb - 0.00 in0.0 mm 0.00 in0.0 mm
11:30 AM 90.2°F32.3°C 58.0°F14.4°C 34% 1.8 mph W2.9 kmh W 4.0 mph6.4 kmh 29.86 in1011.2 mb - 0.00 in0.0 mm 0.00 in0.0 mm
11:45 AM 90.3°F32.4°C 58.9°F14.9°C 35% 0.4 mph SW0.6 kmh SW 3.0 mph4.8 kmh 29.86 in1011.2 mb - 0.00 in0.0 mm 0.00 in0.0 mm
12:00 PM 90.0°F32.2°C 57.9°F14.4°C 34% 0.5 mph NNW0.8 kmh NNW 4.0 mph6.4 kmh 29.86 in1011.2 mb - 0.00 in0.0 mm 0.00 in0.0 mm
12:15 PM 91.2°F32.9°C 58.9°F14.9°C 34% 0.1 mph NW0.2 kmh NW 2.0 mph3.2 kmh 29.85 in1010.8 mb - 0.00 in0.0 mm 0.00 in0.0 mm
12:30 PM 93.0°F33.9°C 57.9°F14.4°C 31% 1.5 mph ESE2.4 kmh ESE 3.0 mph4.8 kmh 29.85 in1010.8 mb - 0.00 in0.0 mm 0.00 in0.0 mm
12:45 PM 94.2°F34.6°C 57.1°F13.9°C 29% 0.9 mph ESE1.4 kmh ESE 3.0 mph4.8 kmh 29.84 in1010.5 mb - 0.00 in0.0 mm 0.00 in0.0 mm
01:00 PM 93.2°F34.0°C 57.1°F13.9°C 30% 1.2 mph ESE1.9 kmh ESE 3.0 mph4.8 kmh 29.84 in1010.5 mb - 0.00 in0.0 mm 0.00 in0.0 mm
01:15 PM 92.4°F33.6°C 58.3°F14.6°C 32% 0.1 mph SE0.2 kmh SE 5.0 mph8.0 kmh 29.82 in1009.8 mb - 0.00 in0.0 mm 0.00 in0.0 mm
01:30 PM 92.2°F33.4°C 56.3°F13.5°C 30% 0.2 mph E0.3 kmh E 2.0 mph3.2 kmh 29.82 in1009.8 mb - 0.00 in0.0 mm 0.00 in0.0 mm
01:45 PM 92.0°F33.3°C 57.0°F13.9°C 31% 0.6 mph ESE1.0 kmh ESE 1.0 mph1.6 kmh 29.81 in1009.5 mb - 0.00 in0.0 mm 0.00 in0.0 mm
02:00 PM 92.1°F33.4°C 56.2°F13.4°C 30% 2.5 mph S4.0 kmh S 4.0 mph6.4 kmh 29.81 in1009.5 mb - 0.00 in0.0 mm 0.00 in0.0 mm
02:15 PM 92.1°F33.4°C 57.1°F13.9°C 31% 2.0 mph S3.2 kmh S 4.0 mph6.4 kmh 29.81 in1009.5 mb - 0.00 in0.0 mm 0.00 in0.0 mm
02:30 PM 92.7°F33.7°C 55.8°F13.2°C 29% 0.4 mph S0.6 kmh S -- 29.81 in1009.5 mb - 0.00 in0.0 mm 0.00 in0.0 mm
02:45 PM 94.2°F34.6°C 56.1°F13.4°C 28% 3.6 mph SE5.8 kmh SE 6.0 mph9.7 kmh 29.81 in1009.5 mb - 0.00 in0.0 mm 0.00 in0.0 mm
03:00 PM 94.6°F34.8°C 56.5°F13.6°C 28% 2.5 mph ESE4.0 kmh ESE 5.0 mph8.0 kmh 29.81 in1009.5 mb - 0.00 in0.0 mm 0.00 in0.0 mm
03:15 PM 94.9°F34.9°C 55.7°F13.2°C 27% 2.4 mph SSW3.9 kmh SSW 3.0 mph4.8 kmh 29.80 in1009.1 mb - 0.00 in0.0 mm 0.00 in0.0 mm
03:30 PM 95.7°F35.4°C 56.4°F13.6°C 27% 1.1 mph SE1.8 kmh SE 3.0 mph4.8 kmh 29.80 in1009.1 mb - 0.00 in0.0 mm 0.00 in0.0 mm
03:45 PM 96.4°F35.8°C 57.0°F13.9°C 27% 1.7 mph SE2.7 kmh SE 6.0 mph9.7 kmh 29.79 in1008.8 mb - 0.00 in0.0 mm 0.00 in0.0 mm
04:00 PM 96.0°F35.6°C 56.6°F13.7°C 27% 0.8 mph SSE1.3 kmh SSE 1.0 mph1.6 kmh 29.79 in1008.8 mb - 0.00 in0.0 mm 0.00 in0.0 mm
04:15 PM 96.1°F35.6°C 57.8°F14.3°C 28% 1.8 mph S2.9 kmh S 5.0 mph8.0 kmh 29.79 in1008.8 mb - 0.00 in0.0 mm 0.00 in0.0 mm
04:30 PM 94.9°F34.9°C 56.7°F13.7°C 28% 2.9 mph S4.7 kmh S 6.0 mph9.7 kmh 29.80 in1009.1 mb - 0.00 in0.0 mm 0.00 in0.0 mm
04:45 PM 94.9°F34.9°C 56.7°F13.7°C 28% 3.5 mph S5.6 kmh S 5.0 mph8.0 kmh 29.80 in1009.1 mb - 0.00 in0.0 mm 0.00 in0.0 mm
05:00 PM 94.1°F34.5°C 57.0°F13.9°C 29% 1.5 mph SW2.4 kmh SW 8.0 mph12.9 kmh 29.79 in1008.8 mb - 0.00 in0.0 mm 0.00 in0.0 mm
05:15 PM 94.3°F34.6°C 57.2°F14.0°C 29% 3.3 mph ESE5.3 kmh ESE 4.0 mph6.4 kmh 29.79 in1008.8 mb - 0.00 in0.0 mm 0.00 in0.0 mm
05:30 PM 93.8°F34.3°C 57.6°F14.2°C 30% 0.4 mph SE0.6 kmh SE 3.0 mph4.8 kmh 29.80 in1009.1 mb - 0.00 in0.0 mm 0.00 in0.0 mm
05:45 PM 92.9°F33.8°C 56.9°F13.8°C 30% 2.4 mph ESE3.9 kmh ESE 3.0 mph4.8 kmh 29.80 in1009.1 mb - 0.00 in0.0 mm 0.00 in0.0 mm
06:00 PM 92.5°F33.6°C 56.6°F13.7°C 30% 2.8 mph E4.5 kmh E 4.0 mph6.4 kmh 29.80 in1009.1 mb - 0.00 in0.0 mm 0.00 in0.0 mm
06:15 PM 91.2°F32.9°C 57.3°F14.1°C 32% 4.3 mph ESE6.9 kmh ESE 7.0 mph11.3 kmh 29.80 in1009.1 mb - 0.00 in0.0 mm 0.00 in0.0 mm
06:30 PM 89.5°F31.9°C 56.6°F13.7°C 33% 4.2 mph E6.8 kmh E 7.0 mph11.3 kmh 29.81 in1009.5 mb - 0.00 in0.0 mm 0.00 in0.0 mm
06:45 PM 88.9°F31.6°C 56.9°F13.8°C 34% 2.9 mph S4.7 kmh S 7.0 mph11.3 kmh 29.83 in1010.2 mb - 0.00 in0.0 mm 0.00 in0.0 mm
07:00 PM 87.8°F31.0°C 59.0°F15.0°C 38% 2.3 mph E3.7 kmh E 5.0 mph8.0 kmh 29.83 in1010.2 mb - 0.00 in0.0 mm 0.00 in0.0 mm
07:15 PM 86.6°F30.3°C 58.0°F14.4°C 38% 0.8 mph SE1.3 kmh SE 2.0 mph3.2 kmh 29.82 in1009.8 mb - 0.00 in0.0 mm 0.00 in0.0 mm
07:30 PM 86.1°F30.1°C 58.2°F14.6°C 39% 0.8 mph SE1.3 kmh SE 2.0 mph3.2 kmh 29.83 in1010.2 mb - 0.00 in0.0 mm 0.00 in0.0 mm
07:45 PM 85.7°F29.8°C 57.2°F14.0°C 38% 1.7 mph E2.7 kmh E 2.0 mph3.2 kmh 29.84 in1010.5 mb - 0.00 in0.0 mm 0.00 in0.0 mm
08:00 PM 85.0°F29.4°C 56.6°F13.7°C 38% 0.2 mph S0.3 kmh S 1.0 mph1.6 kmh 29.84 in1010.5 mb - 0.00 in0.0 mm 0.00 in0.0 mm
08:15 PM 84.4°F29.1°C 56.7°F13.7°C 39% Calm Calm -- 29.85 in1010.8 mb - 0.00 in0.0 mm 0.00 in0.0 mm
08:30 PM 84.1°F28.9°C 59.2°F15.1°C 43% 1.0 mph E1.6 kmh E 4.0 mph6.4 kmh 29.86 in1011.2 mb - 0.00 in0.0 mm 0.00 in0.0 mm
08:45 PM 83.8°F28.8°C 59.5°F15.3°C 44% 0.3 mph SE0.5 kmh SE 1.0 mph1.6 kmh 29.86 in1011.2 mb - 0.00 in0.0 mm 0.00 in0.0 mm
09:00 PM 83.3°F28.5°C 59.1°F15.1°C 44% Calm Calm 1.0 mph1.6 kmh 29.86 in1011.2 mb - 0.00 in0.0 mm 0.00 in0.0 mm
09:15 PM 82.5°F28.1°C 59.0°F15.0°C 45% Calm Calm -- 29.86 in1011.2 mb - 0.00 in0.0 mm 0.00 in0.0 mm
09:30 PM 81.4°F27.4°C 59.9°F15.5°C 48% Calm Calm -- 29.86 in1011.2 mb - 0.00 in0.0 mm 0.00 in0.0 mm
09:45 PM 80.5°F26.9°C 59.6°F15.3°C 49% Calm Calm -- 29.87 in1011.5 mb - 0.00 in0.0 mm 0.00 in0.0 mm
10:00 PM 80.4°F26.9°C 60.0°F15.6°C 50% Calm Calm -- 29.87 in1011.5 mb - 0.00 in0.0 mm 0.00 in0.0 mm
10:15 PM 80.6°F27.0°C 60.2°F15.7°C 50% Calm Calm -- 29.87 in1011.5 mb - 0.00 in0.0 mm 0.00 in0.0 mm
10:30 PM 80.7°F27.1°C 59.8°F15.4°C 49% Calm Calm -- 29.87 in1011.5 mb - 0.00 in0.0 mm 0.00 in0.0 mm
10:45 PM 80.4°F26.9°C 60.0°F15.6°C 50% Calm Calm -- 29.88 in1011.9 mb - 0.00 in0.0 mm 0.00 in0.0 mm
11:00 PM 80.3°F26.8°C 59.4°F15.2°C 49% Calm Calm -- 29.88 in1011.9 mb - 0.00 in0.0 mm 0.00 in0.0 mm
11:15 PM 80.2°F26.8°C 59.9°F15.5°C 50% Calm Calm -- 29.88 in1011.9 mb - 0.00 in0.0 mm 0.00 in0.0 mm
11:30 PM 79.6°F26.4°C 59.9°F15.5°C 51% Calm Calm -- 29.89 in1012.2 mb - 0.00 in0.0 mm 0.00 in0.0 mm
11:45 PM 79.4°F26.3°C 59.7°F15.4°C 51% Calm Calm -- 29.89 in1012.2 mb - 0.00 in0.0 mm 0.00 in0.0 mm